Dinnington, United Kingdom
Current Conditions -  °F | °C
As of 1:20 PM on Thursday 23 Oct 2014 (Local Time) from EGCN Reporting Station
Broken Clouds Broken Clouds  
Wind Chill: 15°   Ceiling: 1700
Heat Index: 15°   Visibility: 6mi
Dew Point: 12°   Wind: 12mph
Humidity: 82%   Direction: 170°S
Pressure: 29.97"   Gusts: NA
Location:  53.37°N, 1.2°W
Report Text: EGCN 231220Z 17010KT 9999 BKN017 15/12 Q1015 RERA
Loading
Personal Weather Stations






























Interactive Weather Map
Tropical Storm Tracking
New forecast layout! Learn more

10-Day Weather Forecast

Advertisements
Track Severe Weather on mobile